メインページ
METAR-TAF:

METAR-TAF

空港 :

ダマスカス国際空港

ダマスカス, シリア

緯度: 33-25N, 経度: 036-31E, 海抜: 608m

現時点の気象観測

当レポートは16分前の16:00(UTC)に作成
西/南西の風 4kt
気温 10°C
湿度 76%
気圧 1015 hPa
視程: 8000m
高度2600ftの雲はほとんどない
高度3000ftの雲は散在している
高度10000ftの千切れ雲あり

METAR: OSDI 181600Z 24004KT 8000 FEW026 SCT030 BKN100 10/06 Q1015

時間: 18:16 (16:16 UTC)

予報

当レポートは6時間16分前の10:00(UTC)に作成
予報は18日の 12時(UTC)から 19日の 18時(UTC)まで有効
西の風 10kt
視程: 8000m
高度3000ftの雲はほとんどない
高度10000ftの雲は散在している
確率 30% :
18日の 12時(UTC)から 19日の 00時(UTC)まで一時的に
南西の風 15kt、最大25ktの突風を伴う
視程: 5000m
高度2500ftの雲はほとんどない, 積乱雲.
高度3000ftの雲は散在している
高度9000ftの千切れ雲あり
にわか雨

TAF: OSDI 181000Z 1812/1918 26010KT 8000 FEW030 SCT100 PROB30 TEMPO 1812/1900 22015G25KT 5000 SHRA FEW025CB SCT030 BKN090

4,000以上の空港の気象観測と天気予報(METAR報とTAF報)

利用可能な観測所は地図上に黄色い丸と赤い丸で示す。

丸の上にカーソルを重ねると観測所名を参照できる。

次にクリックすると気象観測と天気予報を参照できる。

マップの切り替え:黒色「×」印の緑ボタンをクリックして拡大、「-」印の緑ボタンをクリックして縮小、緑色の三角印をクリックして隣りの地図に切り替え


METAR-TAF: